CheckWX is a tool to help pilots better visualize weather data.  It is not intended as a substitute for an official pre-flight weather briefing.

20:39:40 UTC

LFPM METAR
Melun-Villaroche Air Base Airport
Melun/Villaroche, France
Current

40 mins ago

LFPM 292000Z AUTO 19006KT 9999 ////// 03/02 Q1017
Observed
Jan-29 @ 20:00 UTC
Wind
  • 190° at 6 KTS
Visibility
10,000+ meters
Temperature
C / 37°F
Dewpoint
C / 36°F
Humidity
93%
Altimeter
30.03" Hg
Pressure
1016.92 hPa
Previous

1 hour ago

LFPM 291930Z AUTO 20006KT 9999 ////// 03/02 Q1017
Observed
Jan-29 @ 19:30 UTC
Wind
  • 200° at 6 KTS
Visibility
10,000+ meters
Temperature
C / 37°F
Dewpoint
C / 36°F
Humidity
93%
Altimeter
30.03" Hg
Pressure
1016.92 hPa
Previous

2 hours ago

LFPM 291900Z AUTO 21007KT 9999 ////// 04/02 Q1017
Observed
Jan-29 @ 19:00 UTC
Wind
  • 210° at 7 KTS
Visibility
10,000+ meters
Temperature
C / 39°F
Dewpoint
C / 36°F
Humidity
87%
Altimeter
30.03" Hg
Pressure
1016.92 hPa